sensor_id;sensor_type;location;lat;lon;timestamp;pressure;altitude;pressure_sealevel;temperature;humidity
16694;BME280;39538;52.196;9.892;2022-12-17T00:02:02;101109.75;;;-4.50;100.00
16694;BME280;39538;52.196;9.892;2022-12-17T00:04:46;101111.47;;;-4.56;100.00
16694;BME280;39538;52.196;9.892;2022-12-17T00:07:30;101114.91;;;-4.51;100.00
16694;BME280;39538;52.196;9.892;2022-12-17T00:10:16;101108.84;;;-4.55;100.00
16694;BME280;39538;52.196;9.892;2022-12-17T00:13:17;101108.88;;;-4.56;100.00
16694;BME280;39538;52.196;9.892;2022-12-17T00:16:01;101121.81;;;-4.59;100.00
16694;BME280;39538;52.196;9.892;2022-12-17T00:18:45;101120.09;;;-4.60;100.00
16694;BME280;39538;52.196;9.892;2022-12-17T00:21:29;101118.34;;;-4.68;100.00
16694;BME280;39538;52.196;9.892;2022-12-17T00:24:12;101122.66;;;-4.67;100.00
16694;BME280;39538;52.196;9.892;2022-12-17T00:26:58;101122.66;;;-4.74;100.00
16694;BME280;39538;52.196;9.892;2022-12-17T00:29:42;101127.84;;;-4.82;100.00
16694;BME280;39538;52.196;9.892;2022-12-17T00:32:25;101133.88;;;-4.84;100.00
16694;BME280;39538;52.196;9.892;2022-12-17T00:35:09;101130.41;;;-4.85;100.00
16694;BME280;39538;52.196;9.892;2022-12-17T00:37:53;101141.59;;;-4.97;100.00
16694;BME280;39538;52.196;9.892;2022-12-17T00:40:37;101139.03;;;-4.95;100.00
16694;BME280;39538;52.196;9.892;2022-12-17T00:43:23;101139.03;;;-4.95;100.00
16694;BME280;39538;52.196;9.892;2022-12-17T00:46:07;101144.19;;;-4.97;100.00
16694;BME280;39538;52.196;9.892;2022-12-17T00:48:51;101139.00;;;-5.01;100.00
16694;BME280;39538;52.196;9.892;2022-12-17T00:51:34;101142.44;;;-5.04;100.00
16694;BME280;39538;52.196;9.892;2022-12-17T00:54:19;101144.13;;;-5.11;100.00
16694;BME280;39538;52.196;9.892;2022-12-17T00:57:03;101145.00;;;-5.12;100.00
16694;BME280;39538;52.196;9.892;2022-12-17T00:59:48;101138.91;;;-5.20;100.00
16694;BME280;39538;52.196;9.892;2022-12-17T01:02:32;101142.34;;;-5.30;100.00
16694;BME280;39538;52.196;9.892;2022-12-17T01:05:16;101148.38;;;-5.30;100.00
16694;BME280;39538;52.196;9.892;2022-12-17T01:08:06;101148.34;;;-5.34;100.00
16694;BME280;39538;52.196;9.892;2022-12-17T01:10:50;101154.38;;;-5.41;100.00
16694;BME280;39538;52.196;9.892;2022-12-17T01:13:34;101152.63;;;-5.47;100.00
16694;BME280;39538;52.196;9.892;2022-12-17T01:16:19;101156.91;;;-5.54;100.00
16694;BME280;39538;52.196;9.892;2022-12-17T01:19:03;101168.09;;;-5.58;100.00
16694;BME280;39538;52.196;9.892;2022-12-17T01:21:47;101163.78;;;-5.59;100.00
16694;BME280;39538;52.196;9.892;2022-12-17T01:24:31;101169.78;;;-5.63;100.00
16694;BME280;39538;52.196;9.892;2022-12-17T01:27:15;101168.06;;;-5.64;100.00
16694;BME280;39538;52.196;9.892;2022-12-17T01:29:59;101172.38;;;-5.60;100.00
16694;BME280;39538;52.196;9.892;2022-12-17T01:32:45;101173.25;;;-5.58;100.00
16694;BME280;39538;52.196;9.892;2022-12-17T01:35:28;101182.78;;;-5.57;100.00
16694;BME280;39538;52.196;9.892;2022-12-17T01:38:14;101187.06;;;-5.56;100.00
16694;BME280;39538;52.196;9.892;2022-12-17T01:40:58;101188.84;;;-5.48;100.00
16694;BME280;39538;52.196;9.892;2022-12-17T01:43:43;101184.59;;;-5.40;100.00
16694;BME280;39538;52.196;9.892;2022-12-17T01:46:29;101192.38;;;-5.34;100.00
16694;BME280;39538;52.196;9.892;2022-12-17T01:49:17;101185.47;;;-5.35;100.00
16694;BME280;39538;52.196;9.892;2022-12-17T01:52:03;101193.25;;;-5.31;100.00
16694;BME280;39538;52.196;9.892;2022-12-17T01:54:47;101181.19;;;-5.28;100.00
16694;BME280;39538;52.196;9.892;2022-12-17T01:57:32;101185.47;;;-5.35;100.00
16694;BME280;39538;52.196;9.892;2022-12-17T02:00:17;101193.19;;;-5.41;100.00
16694;BME280;39538;52.196;9.892;2022-12-17T02:03:02;101194.88;;;-5.49;100.00
16694;BME280;39538;52.196;9.892;2022-12-17T02:05:53;101187.06;;;-5.56;100.00
16694;BME280;39538;52.196;9.892;2022-12-17T02:08:47;101191.34;;;-5.62;100.00
16694;BME280;39538;52.196;9.892;2022-12-17T02:11:38;101187.88;;;-5.66;100.00
16694;BME280;39538;52.196;9.892;2022-12-17T02:14:32;101188.72;;;-5.73;100.00
16694;BME280;39538;52.196;9.892;2022-12-17T02:17:21;101198.13;;;-5.81;100.00
16694;BME280;39538;52.196;9.892;2022-12-17T02:20:17;101198.06;;;-5.87;100.00
16694;BME280;39538;52.196;9.892;2022-12-17T02:23:24;101204.06;;;-5.93;100.00
16694;BME280;39538;52.196;9.892;2022-12-17T02:26:14;101206.66;;;-5.98;100.00
16694;BME280;39538;52.196;9.892;2022-12-17T02:29:03;101214.34;;;-6.04;100.00
16694;BME280;39538;52.196;9.892;2022-12-17T02:31:50;101224.72;;;-6.01;100.00
16694;BME280;39538;52.196;9.892;2022-12-17T02:34:42;101223.81;;;-6.07;100.00
16694;BME280;39538;52.196;9.892;2022-12-17T02:37:26;101228.16;;;-6.03;100.00
16694;BME280;39538;52.196;9.892;2022-12-17T02:40:24;101226.38;;;-6.09;100.00
16694;BME280;39538;52.196;9.892;2022-12-17T02:43:21;101234.94;;;-6.16;100.00
16694;BME280;39538;52.196;9.892;2022-12-17T02:46:08;101237.50;;;-6.16;100.00
16694;BME280;39538;52.196;9.892;2022-12-17T02:48:52;101241.88;;;-6.09;100.00
16694;BME280;39538;52.196;9.892;2022-12-17T02:51:37;101235.88;;;-6.08;100.00
16694;BME280;39538;52.196;9.892;2022-12-17T02:54:21;101239.34;;;-6.06;100.00
16694;BME280;39538;52.196;9.892;2022-12-17T02:57:05;101239.34;;;-6.04;100.00
16694;BME280;39538;52.196;9.892;2022-12-17T02:59:49;101242.84;;;-6.01;100.00
16694;BME280;39538;52.196;9.892;2022-12-17T03:02:34;101242.88;;;-5.96;100.00
16694;BME280;39538;52.196;9.892;2022-12-17T03:05:18;101240.28;;;-5.95;100.00
16694;BME280;39538;52.196;9.892;2022-12-17T03:08:02;101243.75;;;-5.94;100.00
16694;BME280;39538;52.196;9.892;2022-12-17T03:10:46;101244.56;;;-5.98;100.00
16694;BME280;39538;52.196;9.892;2022-12-17T03:13:30;101248.03;;;-5.96;100.00
16694;BME280;39538;52.196;9.892;2022-12-17T03:16:16;101239.38;;;-6.00;100.00
16694;BME280;39538;52.196;9.892;2022-12-17T03:19:16;101260.13;;;-5.97;100.00
16694;BME280;39538;52.196;9.892;2022-12-17T03:22:00;101249.69;;;-6.03;100.00
16694;BME280;39538;52.196;9.892;2022-12-17T03:24:55;101252.34;;;-5.94;100.00
16694;BME280;39538;52.196;9.892;2022-12-17T03:27:39;101260.97;;;-5.95;100.00
16694;BME280;39538;52.196;9.892;2022-12-17T03:30:24;101262.66;;;-6.00;100.00
16694;BME280;39538;52.196;9.892;2022-12-17T03:33:08;101269.50;;;-6.05;100.00
16694;BME280;39538;52.196;9.892;2022-12-17T03:35:53;101272.06;;;-6.06;100.00
16694;BME280;39538;52.196;9.892;2022-12-17T03:38:37;101276.38;;;-6.07;100.00
16694;BME280;39538;52.196;9.892;2022-12-17T03:41:21;101277.25;;;-6.08;100.00
16694;BME280;39538;52.196;9.892;2022-12-17T03:44:05;101274.66;;;-6.08;100.00
16694;BME280;39538;52.196;9.892;2022-12-17T03:46:49;101276.41;;;-6.04;100.00
16694;BME280;39538;52.196;9.892;2022-12-17T03:49:33;101278.13;;;-6.06;100.00
16694;BME280;39538;52.196;9.892;2022-12-17T03:52:18;101268.63;;;-6.04;100.00
16694;BME280;39538;52.196;9.892;2022-12-17T03:55:03;101272.06;;;-6.06;100.00
16694;BME280;39538;52.196;9.892;2022-12-17T03:57:47;101270.31;;;-6.09;100.00
16694;BME280;39538;52.196;9.892;2022-12-17T04:00:31;101268.59;;;-6.10;100.00
16694;BME280;39538;52.196;9.892;2022-12-17T04:03:15;101281.44;;;-6.19;100.00
16694;BME280;39538;52.196;9.892;2022-12-17T04:05:59;101274.50;;;-6.23;100.00
16694;BME280;39538;52.196;9.892;2022-12-17T04:08:47;101276.16;;;-6.28;100.00
16694;BME280;39538;52.196;9.892;2022-12-17T04:11:31;101277.84;;;-6.32;100.00
16694;BME280;39538;52.196;9.892;2022-12-17T04:14:16;101272.63;;;-6.37;100.00
16694;BME280;39538;52.196;9.892;2022-12-17T04:17:00;101273.44;;;-6.42;100.00
16694;BME280;39538;52.196;9.892;2022-12-17T04:19:44;101282.91;;;-6.43;100.00
16694;BME280;39538;52.196;9.892;2022-12-17T04:22:28;101278.56;;;-6.44;100.00
16694;BME280;39538;52.196;9.892;2022-12-17T04:25:13;101272.56;;;-6.43;100.00
16694;BME280;39538;52.196;9.892;2022-12-17T04:27:58;101273.47;;;-6.39;100.00
16694;BME280;39538;52.196;9.892;2022-12-17T04:30:41;101279.41;;;-6.48;100.00
16694;BME280;39538;52.196;9.892;2022-12-17T04:33:25;101284.53;;;-6.52;100.00
16694;BME280;39538;52.196;9.892;2022-12-17T04:36:09;101293.91;;;-6.61;100.00
16694;BME280;39538;52.196;9.892;2022-12-17T04:38:53;101289.59;;;-6.60;100.00
16694;BME280;39538;52.196;9.892;2022-12-17T04:41:39;101299.88;;;-6.66;100.00
16694;BME280;39538;52.196;9.892;2022-12-17T04:44:23;101301.66;;;-6.59;100.00
16694;BME280;39538;52.196;9.892;2022-12-17T04:47:07;101305.94;;;-6.61;100.00
16694;BME280;39538;52.196;9.892;2022-12-17T04:49:51;101297.22;;;-6.71;100.00
16694;BME280;39538;52.196;9.892;2022-12-17T04:52:35;101292.91;;;-6.70;100.00
16694;BME280;39538;52.196;9.892;2022-12-17T04:55:19;101296.44;;;-6.64;100.00
16694;BME280;39538;52.196;9.892;2022-12-17T04:58:06;101298.13;;;-6.67;100.00
16694;BME280;39538;52.196;9.892;2022-12-17T05:00:51;101298.94;;;-6.70;100.00
16694;BME280;39538;52.196;9.892;2022-12-17T05:03:35;101291.25;;;-6.65;100.00
16694;BME280;39538;52.196;9.892;2022-12-17T05:06:19;101292.13;;;-6.66;100.00
16694;BME280;39538;52.196;9.892;2022-12-17T05:09:03;101298.09;;;-6.70;100.00
16694;BME280;39538;52.196;9.892;2022-12-17T05:11:46;101298.84;;;-6.76;100.00
16694;BME280;39538;52.196;9.892;2022-12-17T05:14:40;101299.66;;;-6.82;100.00
16694;BME280;39538;52.196;9.892;2022-12-17T05:17:24;101310.00;;;-6.82;100.00
16694;BME280;39538;52.196;9.892;2022-12-17T05:20:09;101305.56;;;-6.90;100.00
16694;BME280;39538;52.196;9.892;2022-12-17T05:22:49;101305.56;;;-6.92;100.00
16694;BME280;39538;52.196;9.892;2022-12-17T05:25:34;101304.66;;;-6.94;100.00
16694;BME280;39538;52.196;9.892;2022-12-17T05:28:17;101304.63;;;-6.95;100.00
16694;BME280;39538;52.196;9.892;2022-12-17T05:31:17;101312.34;;;-6.98;100.00
16694;BME280;39538;52.196;9.892;2022-12-17T05:34:02;101313.19;;;-7.00;100.00
16694;BME280;39538;52.196;9.892;2022-12-17T05:36:45;101319.22;;;-7.01;100.00
16694;BME280;39538;52.196;9.892;2022-12-17T05:39:29;101315.00;;;-6.94;100.00
16694;BME280;39538;52.196;9.892;2022-12-17T05:42:13;101322.78;;;-6.91;100.00
16694;BME280;39538;52.196;9.892;2022-12-17T05:44:57;101320.22;;;-6.88;100.00
16694;BME280;39538;52.196;9.892;2022-12-17T05:47:42;101322.84;;;-6.86;100.00
16694;BME280;39538;52.196;9.892;2022-12-17T05:50:26;101327.91;;;-6.92;100.00
16694;BME280;39538;52.196;9.892;2022-12-17T05:53:10;101326.16;;;-6.96;100.00
16694;BME280;39538;52.196;9.892;2022-12-17T05:55:54;101330.34;;;-7.03;100.00
16694;BME280;39538;52.196;9.892;2022-12-17T05:58:38;101333.63;;;-7.13;100.00
16694;BME280;39538;52.196;9.892;2022-12-17T06:01:22;101335.28;;;-7.18;100.00
16694;BME280;39538;52.196;9.892;2022-12-17T06:04:09;101346.41;;;-7.23;99.97
16694;BME280;39538;52.196;9.892;2022-12-17T06:06:53;101338.63;;;-7.26;99.56
16694;BME280;39538;52.196;9.892;2022-12-17T06:09:37;101352.38;;;-7.27;99.86
16694;BME280;39538;52.196;9.892;2022-12-17T06:12:21;101354.03;;;-7.32;99.70
16694;BME280;39538;52.196;9.892;2022-12-17T06:15:06;101352.28;;;-7.33;99.44
16694;BME280;39538;52.196;9.892;2022-12-17T06:17:54;101361.75;;;-7.33;99.50
16694;BME280;39538;52.196;9.892;2022-12-17T06:20:40;101364.44;;;-7.26;99.11
16694;BME280;39538;52.196;9.892;2022-12-17T06:23:24;101364.44;;;-7.26;99.01
16694;BME280;39538;52.196;9.892;2022-12-17T06:26:08;101373.19;;;-7.16;99.10
16694;BME280;39538;52.196;9.892;2022-12-17T06:28:52;101369.84;;;-7.10;98.78
16694;BME280;39538;52.196;9.892;2022-12-17T06:31:36;101373.34;;;-7.05;99.02
16694;BME280;39538;52.196;9.892;2022-12-17T06:34:20;101374.38;;;-6.94;99.51
16694;BME280;39538;52.196;9.892;2022-12-17T06:37:05;101374.38;;;-6.94;99.27
16694;BME280;39538;52.196;9.892;2022-12-17T06:39:50;101372.84;;;-6.81;99.59
16694;BME280;39538;52.196;9.892;2022-12-17T06:42:33;101384.16;;;-6.71;99.45
16694;BME280;39538;52.196;9.892;2022-12-17T06:45:17;101373.03;;;-6.67;99.31
16694;BME280;39538;52.196;9.892;2022-12-17T06:48:02;101379.13;;;-6.62;99.13
16694;BME280;39538;52.196;9.892;2022-12-17T06:50:46;101378.25;;;-6.63;99.30
16694;BME280;39538;52.196;9.892;2022-12-17T06:53:31;101382.59;;;-6.60;99.31
16694;BME280;39538;52.196;9.892;2022-12-17T06:56:15;101383.44;;;-6.60;99.13
16694;BME280;39538;52.196;9.892;2022-12-17T06:58:59;101384.41;;;-6.53;99.02
16694;BME280;39538;52.196;9.892;2022-12-17T07:01:43;101396.56;;;-6.46;98.63
16694;BME280;39538;52.196;9.892;2022-12-17T07:04:32;101408.63;;;-6.45;98.34
16694;BME280;39538;52.196;9.892;2022-12-17T07:07:16;101418.22;;;-6.38;98.27
16694;BME280;39538;52.196;9.892;2022-12-17T07:10:02;101426.09;;;-6.28;98.19
16694;BME280;39538;52.196;9.892;2022-12-17T07:12:46;101427.88;;;-6.23;97.95
16694;BME280;39538;52.196;9.892;2022-12-17T07:15:30;101434.88;;;-6.14;97.70
16694;BME280;39538;52.196;9.892;2022-12-17T07:18:14;101434.94;;;-6.09;98.04
16694;BME280;39538;52.196;9.892;2022-12-17T07:20:58;101445.34;;;-6.05;97.31
16694;BME280;39538;52.196;9.892;2022-12-17T07:23:39;101454.00;;;-6.00;96.97
16694;BME280;39538;52.196;9.892;2022-12-17T07:26:24;101452.31;;;-5.98;96.75
16694;BME280;39538;52.196;9.892;2022-12-17T07:29:08;101452.34;;;-5.95;96.54
16694;BME280;39538;52.196;9.892;2022-12-17T07:31:52;101447.13;;;-5.98;96.24
16694;BME280;39538;52.196;9.892;2022-12-17T07:34:36;101450.63;;;-5.91;95.82
16694;BME280;39538;52.196;9.892;2022-12-17T07:37:20;101459.34;;;-5.84;95.94
16694;BME280;39538;52.196;9.892;2022-12-17T07:40:05;101469.78;;;-5.75;95.66
16694;BME280;39538;52.196;9.892;2022-12-17T07:42:51;101472.41;;;-5.72;95.63
16694;BME280;39538;52.196;9.892;2022-12-17T07:45:35;101467.28;;;-5.67;95.09
16694;BME280;39538;52.196;9.892;2022-12-17T07:48:19;101470.66;;;-5.75;95.12
16694;BME280;39538;52.196;9.892;2022-12-17T07:51:03;101480.16;;;-5.75;94.68
16694;BME280;39538;52.196;9.892;2022-12-17T07:53:47;101476.81;;;-5.62;94.13
16694;BME280;39538;52.196;9.892;2022-12-17T07:56:31;101478.69;;;-5.48;94.27
16694;BME280;39538;52.196;9.892;2022-12-17T07:59:16;101489.16;;;-5.39;93.79
16694;BME280;39538;52.196;9.892;2022-12-17T08:02:00;101490.09;;;-5.30;94.02
16694;BME280;39538;52.196;9.892;2022-12-17T08:04:44;101495.41;;;-5.17;93.63
16694;BME280;39538;52.196;9.892;2022-12-17T08:07:28;101495.50;;;-5.06;93.60
16694;BME280;39538;52.196;9.892;2022-12-17T08:10:12;101507.69;;;-4.96;93.39
16694;BME280;39538;52.196;9.892;2022-12-17T08:12:58;101492.19;;;-4.90;93.63
16694;BME280;39538;52.196;9.892;2022-12-17T08:15:44;101506.97;;;-4.80;93.70
16694;BME280;39538;52.196;9.892;2022-12-17T08:18:37;101506.19;;;-4.70;93.53
16694;BME280;39538;52.196;9.892;2022-12-17T08:21:21;101506.22;;;-4.62;93.32
16694;BME280;39538;52.196;9.892;2022-12-17T08:24:02;101507.97;;;-4.61;92.85
16694;BME280;39538;52.196;9.892;2022-12-17T08:26:46;101517.53;;;-4.52;92.67
16694;BME280;39538;52.196;9.892;2022-12-17T08:29:30;101517.59;;;-4.45;92.24
16694;BME280;39538;52.196;9.892;2022-12-17T08:32:15;101527.97;;;-4.43;92.31
16694;BME280;39538;52.196;9.892;2022-12-17T08:34:59;101535.78;;;-4.37;92.09
16694;BME280;39538;52.196;9.892;2022-12-17T08:37:43;101533.25;;;-4.28;92.25
16694;BME280;39538;52.196;9.892;2022-12-17T08:40:27;101534.19;;;-4.16;92.20
16694;BME280;39538;52.196;9.892;2022-12-17T08:43:13;101530.81;;;-4.08;92.25
16694;BME280;39538;52.196;9.892;2022-12-17T08:45:57;101529.97;;;-4.00;92.26
16694;BME280;39538;52.196;9.892;2022-12-17T08:48:43;101537.81;;;-3.91;92.18
16694;BME280;39538;52.196;9.892;2022-12-17T08:51:27;101540.44;;;-3.79;91.83
16694;BME280;39538;52.196;9.892;2022-12-17T08:54:25;101534.44;;;-3.69;91.72
16694;BME280;39538;52.196;9.892;2022-12-17T08:57:09;101534.50;;;-3.55;91.24
16694;BME280;39538;52.196;9.892;2022-12-17T08:59:53;101538.88;;;-3.34;90.59
16694;BME280;39538;52.196;9.892;2022-12-17T09:02:37;101531.13;;;-3.15;89.83
16694;BME280;39538;52.196;9.892;2022-12-17T09:05:23;101530.31;;;-3.01;89.33
16694;BME280;39538;52.196;9.892;2022-12-17T09:08:07;101525.13;;;-3.01;89.26
16694;BME280;39538;52.196;9.892;2022-12-17T09:10:51;101532.06;;;-2.89;89.05
16694;BME280;39538;52.196;9.892;2022-12-17T09:13:35;101539.84;;;-2.70;88.69
16694;BME280;39538;52.196;9.892;2022-12-17T09:16:20;101538.09;;;-2.64;88.17
16694;BME280;39538;52.196;9.892;2022-12-17T09:19:05;101545.91;;;-2.53;87.37
16694;BME280;39538;52.196;9.892;2022-12-17T09:21:50;101542.44;;;-2.38;87.19
16694;BME280;39538;52.196;9.892;2022-12-17T09:24:34;101547.63;;;-2.26;86.97
16694;BME280;39538;52.196;9.892;2022-12-17T09:27:18;101552.84;;;-2.17;86.70
16694;BME280;39538;52.196;9.892;2022-12-17T09:30:02;101558.00;;;-2.06;86.51
16694;BME280;39538;52.196;9.892;2022-12-17T09:32:46;101545.84;;;-2.02;86.20
16694;BME280;39538;52.196;9.892;2022-12-17T09:35:30;101549.31;;;-1.96;85.79
16694;BME280;39538;52.196;9.892;2022-12-17T09:38:16;101546.69;;;-1.91;85.45
16694;BME280;39538;52.196;9.892;2022-12-17T09:41:14;101551.88;;;-1.88;84.86
16694;BME280;39538;52.196;9.892;2022-12-17T09:44:05;101549.31;;;-1.91;84.19
16694;BME280;39538;52.196;9.892;2022-12-17T09:46:56;101555.34;;;-1.87;84.20
16694;BME280;39538;52.196;9.892;2022-12-17T09:49:42;101558.81;;;-1.81;83.87
16694;BME280;39538;52.196;9.892;2022-12-17T09:52:28;101552.72;;;-1.77;83.80
16694;BME280;39538;52.196;9.892;2022-12-17T09:55:19;101560.53;;;-1.77;83.47
16694;BME280;39538;52.196;9.892;2022-12-17T09:58:04;101557.06;;;-1.74;83.63
16694;BME280;39538;52.196;9.892;2022-12-17T10:00:46;101569.19;;;-1.67;83.96
16694;BME280;39538;52.196;9.892;2022-12-17T10:03:29;101569.16;;;-1.61;84.01
16694;BME280;39538;52.196;9.892;2022-12-17T10:06:19;101570.84;;;-1.51;83.90
16694;BME280;39538;52.196;9.892;2022-12-17T10:09:10;101579.50;;;-1.44;83.94
16694;BME280;39538;52.196;9.892;2022-12-17T10:11:59;101585.56;;;-1.45;83.74
16694;BME280;39538;52.196;9.892;2022-12-17T10:14:45;101589.00;;;-1.34;83.86
16694;BME280;39538;52.196;9.892;2022-12-17T10:17:29;101591.59;;;-1.31;83.68
16694;BME280;39538;52.196;9.892;2022-12-17T10:20:20;101587.25;;;-1.25;83.57
16694;BME280;39538;52.196;9.892;2022-12-17T10:23:04;101592.41;;;-1.13;83.33
16694;BME280;39538;52.196;9.892;2022-12-17T10:25:50;101578.47;;;-1.12;82.78
16694;BME280;39538;52.196;9.892;2022-12-17T10:28:36;101592.38;;;-1.10;82.35
16694;BME280;39538;52.196;9.892;2022-12-17T10:31:22;101586.22;;;-0.97;82.79
16694;BME280;39538;52.196;9.892;2022-12-17T10:34:13;101593.06;;;-0.82;82.30
16694;BME280;39538;52.196;9.892;2022-12-17T10:36:58;101590.41;;;-0.71;81.54
16694;BME280;39538;52.196;9.892;2022-12-17T10:39:42;101585.97;;;-0.61;81.31
16694;BME280;39538;52.196;9.892;2022-12-17T10:42:28;101598.91;;;-0.48;81.51
16694;BME280;39538;52.196;9.892;2022-12-17T10:45:23;101592.69;;;-0.30;81.63
16694;BME280;39538;52.196;9.892;2022-12-17T10:48:21;101594.31;;;-0.19;80.62
16694;BME280;39538;52.196;9.892;2022-12-17T10:51:17;101587.19;;;-0.01;79.87
16694;BME280;39538;52.196;9.892;2022-12-17T10:54:08;101581.88;;;0.09;79.12
16694;BME280;39538;52.196;9.892;2022-12-17T10:56:56;101579.16;;;0.18;78.48
16694;BME280;39538;52.196;9.892;2022-12-17T10:59:42;101584.31;;;0.24;77.58
16694;BME280;39538;52.196;9.892;2022-12-17T11:02:28;101589.59;;;0.21;76.91
16694;BME280;39538;52.196;9.892;2022-12-17T11:05:14;101590.25;;;0.38;76.99
16694;BME280;39538;52.196;9.892;2022-12-17T11:07:59;101590.25;;;0.40;76.61
16694;BME280;39538;52.196;9.892;2022-12-17T11:10:46;101593.50;;;0.57;76.54
16694;BME280;39538;52.196;9.892;2022-12-17T11:13:36;101592.53;;;0.66;76.16
16694;BME280;39538;52.196;9.892;2022-12-17T11:16:25;101593.28;;;0.76;75.76
16694;BME280;39538;52.196;9.892;2022-12-17T11:19:27;101595.66;;;0.93;75.53
16694;BME280;39538;52.196;9.892;2022-12-17T11:22:21;101593.72;;;1.07;75.25
16694;BME280;39538;52.196;9.892;2022-12-17T11:25:20;101603.13;;;1.22;75.07
16694;BME280;39538;52.196;9.892;2022-12-17T11:28:14;101595.84;;;1.41;74.58
16694;BME280;39538;52.196;9.892;2022-12-17T11:31:09;101603.34;;;1.62;74.03
16694;BME280;39538;52.196;9.892;2022-12-17T11:34:04;101601.34;;;1.80;72.65
16694;BME280;39538;52.196;9.892;2022-12-17T11:37:00;101607.06;;;2.00;71.64
16694;BME280;39538;52.196;9.892;2022-12-17T11:39:57;101599.97;;;2.07;70.88
16694;BME280;39538;52.196;9.892;2022-12-17T11:42:48;101603.19;;;2.21;70.01
16694;BME280;39538;52.196;9.892;2022-12-17T11:45:55;101601.13;;;2.39;69.71
16694;BME280;39538;52.196;9.892;2022-12-17T11:48:46;101606.16;;;2.49;68.92
16694;BME280;39538;52.196;9.892;2022-12-17T11:51:38;101604.34;;;2.53;68.18
16694;BME280;39538;52.196;9.892;2022-12-17T11:54:28;101598.91;;;2.62;67.63
16694;BME280;39538;52.196;9.892;2022-12-17T11:57:20;101599.50;;;2.75;67.23
16694;BME280;39538;52.196;9.892;2022-12-17T12:00:14;101611.09;;;3.05;66.50
16694;BME280;39538;52.196;9.892;2022-12-17T12:03:08;101607.06;;;3.29;65.36
16694;BME280;39538;52.196;9.892;2022-12-17T12:06:00;101606.19;;;3.66;64.17
16694;BME280;39538;52.196;9.892;2022-12-17T12:08:58;101604.69;;;4.25;63.48
16694;BME280;39538;52.196;9.892;2022-12-17T12:11:55;101599.13;;;5.53;61.40
16694;BME280;39538;52.196;9.892;2022-12-17T12:14:49;101596.97;;;6.66;57.74
16694;BME280;39538;52.196;9.892;2022-12-17T12:17:45;101604.34;;;8.12;54.65
16694;BME280;39538;52.196;9.892;2022-12-17T12:20:42;101601.16;;;9.39;50.78
16694;BME280;39538;52.196;9.892;2022-12-17T12:23:53;101600.72;;;10.86;46.97
16694;BME280;39538;52.196;9.892;2022-12-17T12:27:02;101610.06;;;11.41;44.11
16694;BME280;39538;52.196;9.892;2022-12-17T12:29:51;101616.50;;;11.53;42.87
16694;BME280;39538;52.196;9.892;2022-12-17T12:32:43;101606.88;;;11.50;42.41
16694;BME280;39538;52.196;9.892;2022-12-17T12:35:28;101609.81;;;11.14;41.29
16694;BME280;39538;52.196;9.892;2022-12-17T12:38:17;101601.72;;;10.17;41.73
16694;BME280;39538;52.196;9.892;2022-12-17T12:41:13;101611.38;;;9.11;43.36
16694;BME280;39538;52.196;9.892;2022-12-17T12:44:11;101610.75;;;8.27;44.34
16694;BME280;39538;52.196;9.892;2022-12-17T12:47:02;101620.81;;;7.55;45.56
16694;BME280;39538;52.196;9.892;2022-12-17T12:50:09;101616.44;;;6.87;46.70
16694;BME280;39538;52.196;9.892;2022-12-17T12:52:56;101617.91;;;6.22;47.93
16694;BME280;39538;52.196;9.892;2022-12-17T12:55:41;101620.28;;;5.49;49.40
16694;BME280;39538;52.196;9.892;2022-12-17T12:58:27;101621.19;;;4.92;50.80
16694;BME280;39538;52.196;9.892;2022-12-17T13:01:13;101618.25;;;4.40;51.89
16694;BME280;39538;52.196;9.892;2022-12-17T13:03:59;101627.41;;;3.93;53.06
16694;BME280;39538;52.196;9.892;2022-12-17T13:06:46;101619.78;;;3.48;54.41
16694;BME280;39538;52.196;9.892;2022-12-17T13:09:20;101618.75;;;3.14;55.50
16694;BME280;39538;52.196;9.892;2022-12-17T13:11:47;101607.22;;;2.83;56.68
16694;BME280;39538;52.196;9.892;2022-12-17T13:14:17;101620.06;;;2.53;58.13
16694;BME280;39538;52.196;9.892;2022-12-17T13:16:52;101613.72;;;2.18;60.36
16694;BME280;39538;52.196;9.892;2022-12-17T13:19:32;101618.78;;;1.79;62.42
16694;BME280;39538;52.196;9.892;2022-12-17T13:24:52;101621.44;;;1.19;66.42
16694;BME280;39538;52.196;9.892;2022-12-17T13:27:28;101618.16;;;1.06;67.18
16694;BME280;39538;52.196;9.892;2022-12-17T13:29:55;101617.53;;;0.89;68.19
16694;BME280;39538;52.196;9.892;2022-12-17T13:32:27;101621.25;;;0.71;69.54
16694;BME280;39538;52.196;9.892;2022-12-17T13:35:04;101612.81;;;0.47;70.77
16694;BME280;39538;52.196;9.892;2022-12-17T13:37:41;101621.81;;;0.20;72.70
16694;BME280;39538;52.196;9.892;2022-12-17T13:40:33;101630.63;;;0.08;73.78
16694;BME280;39538;52.196;9.892;2022-12-17T13:43:02;101627.25;;;0.00;74.27
16694;BME280;39538;52.196;9.892;2022-12-17T13:45:31;101626.50;;;-0.19;72.60
16694;BME280;39538;52.196;9.892;2022-12-17T13:48:01;101628.34;;;-0.27;70.13
16694;BME280;39538;52.196;9.892;2022-12-17T13:50:29;101634.47;;;-0.34;69.67
16694;BME280;39538;52.196;9.892;2022-12-17T13:52:55;101637.88;;;-0.26;69.47
16694;BME280;39538;52.196;9.892;2022-12-17T13:55:24;101636.00;;;-0.10;68.05
16694;BME280;39538;52.196;9.892;2022-12-17T13:57:52;101635.97;;;-0.07;67.63
16694;BME280;39538;52.196;9.892;2022-12-17T14:00:21;101642.09;;;-0.07;67.58
16694;BME280;39538;52.196;9.892;2022-12-17T14:02:48;101643.88;;;-0.15;68.78
16694;BME280;39538;52.196;9.892;2022-12-17T14:05:24;101640.34;;;-0.08;68.57
16694;BME280;39538;52.196;9.892;2022-12-17T14:07:51;101650.78;;;-0.08;68.77
16694;BME280;39538;52.196;9.892;2022-12-17T14:10:19;101650.09;;;-0.33;70.14
16694;BME280;39538;52.196;9.892;2022-12-17T14:12:45;101645.84;;;-0.43;70.85
16694;BME280;39538;52.196;9.892;2022-12-17T14:15:19;101654.66;;;-0.61;72.03
16694;BME280;39538;52.196;9.892;2022-12-17T14:17:49;101646.91;;;-0.72;71.41
16694;BME280;39538;52.196;9.892;2022-12-17T14:20:18;101653.97;;;-0.86;71.54
16694;BME280;39538;52.196;9.892;2022-12-17T14:22:49;101661.84;;;-1.00;71.91
16694;BME280;39538;52.196;9.892;2022-12-17T14:25:18;101664.47;;;-1.12;73.09